createdAt,value
2022-10-29T00:01:15.114Z,7.10
2022-10-29T00:03:43.705Z,6.38
2022-10-29T00:06:13.726Z,7.60
2022-10-29T00:08:43.546Z,6.30
2022-10-29T00:11:14.263Z,7.47
2022-10-29T00:13:44.307Z,6.43
2022-10-29T00:16:14.546Z,5.90
2022-10-29T00:18:43.893Z,6.82
2022-10-29T00:21:15.368Z,6.30
2022-10-29T00:23:43.966Z,5.80
2022-10-29T00:26:12.409Z,6.05
2022-10-29T00:28:41.237Z,6.45
2022-10-29T00:31:13.090Z,6.00
2022-10-29T00:33:41.416Z,5.85
2022-10-29T00:36:14.091Z,5.78
2022-10-29T00:38:42.505Z,5.97
2022-10-29T00:41:14.881Z,5.70
2022-10-29T00:43:47.977Z,6.00
2022-10-29T00:46:22.284Z,6.03
2022-10-29T00:48:53.749Z,6.00
2022-10-29T00:51:24.190Z,5.78
2022-10-29T00:56:26.282Z,6.32
2022-10-29T00:58:54.839Z,6.50
2022-10-29T01:01:23.403Z,6.32
2022-10-29T01:03:54.197Z,6.82
2022-10-29T01:06:25.345Z,6.47
2022-10-29T01:08:53.949Z,7.18
2022-10-29T01:11:35.448Z,6.88
2022-10-29T01:14:17.520Z,6.68
2022-10-29T01:16:51.627Z,6.57
2022-10-29T01:19:41.886Z,5.70
2022-10-29T01:22:17.511Z,5.25
2022-10-29T01:25:03.725Z,5.82
2022-10-29T01:27:56.566Z,5.45
2022-10-29T01:30:54.215Z,5.82
2022-10-29T01:33:31.243Z,5.50
2022-10-29T01:36:06.387Z,5.22
2022-10-29T01:38:39.950Z,5.45
2022-10-29T01:41:14.068Z,5.25
2022-10-29T01:43:48.595Z,4.90
2022-10-29T01:46:22.464Z,4.35
2022-10-29T01:48:55.883Z,5.10
2022-10-29T01:51:27.278Z,4.95
2022-10-29T01:53:56.570Z,4.80
2022-10-29T01:56:24.844Z,4.97
2022-10-29T01:58:58.209Z,5.15
2022-10-29T02:01:43.837Z,5.40
2022-10-29T02:04:33.063Z,4.72
2022-10-29T02:07:10.221Z,5.32
2022-10-29T02:10:07.766Z,5.38
2022-10-29T02:12:42.924Z,5.00
2022-10-29T02:15:17.837Z,4.63
2022-10-29T02:17:46.391Z,5.57
2022-10-29T02:20:17.093Z,4.95
2022-10-29T02:22:45.951Z,4.85
2022-10-29T02:25:14.698Z,5.00
2022-10-29T02:27:42.940Z,5.35
2022-10-29T02:30:12.197Z,4.72
2022-10-29T02:32:40.419Z,4.75
2022-10-29T02:37:58.572Z,4.78
2022-10-29T02:40:27.005Z,4.65
2022-10-29T02:42:56.081Z,4.88
2022-10-29T02:45:25.083Z,5.47
2022-10-29T02:47:53.523Z,4.43
2022-10-29T02:50:21.897Z,5.25
2022-10-29T02:52:50.767Z,4.20
2022-10-29T02:55:20.402Z,4.68
2022-10-29T02:57:49.208Z,5.20
2022-10-29T03:00:17.905Z,4.50
2022-10-29T03:02:46.478Z,4.85
2022-10-29T03:05:14.751Z,5.18
2022-10-29T03:07:43.187Z,4.40
2022-10-29T03:10:11.826Z,4.85
2022-10-29T03:12:41.976Z,4.50
2022-10-29T03:15:11.480Z,4.30
2022-10-29T03:17:39.735Z,4.85
2022-10-29T03:20:09.220Z,4.50
2022-10-29T03:22:37.951Z,4.78
2022-10-29T03:25:07.383Z,4.20
2022-10-29T03:27:43.248Z,4.32
2022-10-29T03:30:13.451Z,4.07
2022-10-29T03:32:41.947Z,4.72
2022-10-29T03:35:12.362Z,4.40
2022-10-29T03:37:41.061Z,4.65
2022-10-29T03:40:10.819Z,5.07
2022-10-29T03:42:40.140Z,4.45
2022-10-29T03:45:11.134Z,4.70
2022-10-29T03:47:39.843Z,4.95
2022-10-29T03:50:09.423Z,4.72
2022-10-29T03:52:38.204Z,4.80
2022-10-29T03:55:07.871Z,7.03
2022-10-29T03:57:36.826Z,5.30
2022-10-29T04:00:06.313Z,5.03
2022-10-29T04:02:42.875Z,5.03
2022-10-29T04:05:11.238Z,4.82
2022-10-29T04:07:39.727Z,4.80
2022-10-29T04:10:08.467Z,5.03
2022-10-29T04:12:36.957Z,4.20
2022-10-29T04:15:06.545Z,4.35
2022-10-29T04:17:34.803Z,4.90
2022-10-29T04:20:10.031Z,4.95
2022-10-29T04:28:45.144Z,4.60
2022-10-29T04:31:16.014Z,4.50
2022-10-29T04:33:44.758Z,4.40
2022-10-29T04:36:14.438Z,4.90
2022-10-29T04:41:29.171Z,4.38
2022-10-29T04:43:57.438Z,5.32
2022-10-29T04:46:25.957Z,4.45
2022-10-29T04:48:54.701Z,4.65
2022-10-29T04:51:26.625Z,4.85
2022-10-29T04:53:55.283Z,4.43
2022-10-29T04:56:23.554Z,4.28
2022-10-29T04:58:53.410Z,4.68
2022-10-29T05:01:21.817Z,5.45
2022-10-29T05:03:51.415Z,4.30
2022-10-29T05:06:21.735Z,4.43
2022-10-29T05:08:51.873Z,4.60
2022-10-29T05:11:20.098Z,4.30
2022-10-29T05:13:49.013Z,4.03
2022-10-29T05:16:17.579Z,4.43
2022-10-29T05:18:45.808Z,4.10
2022-10-29T05:21:14.532Z,4.65
2022-10-29T05:23:42.779Z,4.05
2022-10-29T05:26:13.015Z,4.30
2022-10-29T05:28:41.254Z,4.65
2022-10-29T05:31:10.058Z,4.57
2022-10-29T05:33:38.272Z,4.53
2022-10-29T05:36:07.391Z,4.03
2022-10-29T05:38:35.630Z,4.53
2022-10-29T05:41:04.327Z,4.05
2022-10-29T05:43:34.436Z,4.25
2022-10-29T05:46:04.279Z,4.55
2022-10-29T05:48:33.184Z,4.25
2022-10-29T05:51:01.517Z,4.30
2022-10-29T05:53:30.193Z,4.45
2022-10-29T05:55:59.966Z,4.32
2022-10-29T05:58:28.860Z,4.60
2022-10-29T06:00:58.418Z,4.93
2022-10-29T06:03:27.248Z,5.13
2022-10-29T06:05:55.487Z,6.63
2022-10-29T06:08:23.968Z,5.00
2022-10-29T06:10:54.193Z,4.80
2022-10-29T06:13:23.462Z,4.57
2022-10-29T06:15:57.298Z,5.40
2022-10-29T06:18:27.607Z,4.43
2022-10-29T06:20:59.017Z,4.82
2022-10-29T06:23:27.490Z,5.13
2022-10-29T06:25:55.796Z,4.82
2022-10-29T06:28:24.032Z,4.68
2022-10-29T06:30:52.907Z,6.47
2022-10-29T06:33:21.905Z,10.10
2022-10-29T06:35:51.963Z,7.57
2022-10-29T06:38:20.257Z,5.47
2022-10-29T06:40:54.702Z,5.00
2022-10-29T06:43:23.252Z,4.55
2022-10-29T06:45:52.268Z,4.65
2022-10-29T06:48:22.408Z,4.70
2022-10-29T06:50:53.129Z,4.70
2022-10-29T06:53:21.515Z,4.85
2022-10-29T06:55:50.164Z,5.15
2022-10-29T06:58:20.395Z,6.00
2022-10-29T07:00:49.371Z,5.30
2022-10-29T07:03:20.255Z,4.82
2022-10-29T07:05:48.996Z,4.70
2022-10-29T07:08:19.181Z,4.80
2022-10-29T07:10:51.706Z,9.20
2022-10-29T07:13:20.387Z,5.70
2022-10-29T07:15:49.033Z,5.75
2022-10-29T07:18:17.570Z,5.65
2022-10-29T07:20:47.101Z,5.60
2022-10-29T07:23:15.452Z,5.00
2022-10-29T07:25:45.634Z,5.30
2022-10-29T07:28:16.294Z,6.20
2022-10-29T07:30:46.086Z,5.32
2022-10-29T07:33:14.653Z,5.50
2022-10-29T07:35:44.858Z,5.80
2022-10-29T07:38:14.300Z,5.65
2022-10-29T07:40:50.666Z,5.38
2022-10-29T07:43:20.366Z,5.40
2022-10-29T07:45:50.993Z,5.85
2022-10-29T07:48:20.374Z,6.28
2022-10-29T07:50:49.942Z,6.85
2022-10-29T07:53:20.068Z,6.53
2022-10-29T07:55:54.974Z,6.03
2022-10-29T07:58:23.777Z,6.20
2022-10-29T08:00:52.724Z,5.00
2022-10-29T08:03:21.064Z,5.50
2022-10-29T08:05:56.295Z,12.27
2022-10-29T08:08:25.856Z,10.57
2022-10-29T08:11:01.078Z,13.35
2022-10-29T08:13:32.101Z,9.43
2022-10-29T08:16:00.576Z,9.10
2022-10-29T08:18:29.055Z,11.38
2022-10-29T08:20:57.494Z,8.43
2022-10-29T08:23:26.770Z,7.15
2022-10-29T08:25:58.916Z,7.28
2022-10-29T08:28:30.420Z,6.57
2022-10-29T08:31:02.000Z,6.45
2022-10-29T08:33:31.097Z,6.30
2022-10-29T08:36:00.522Z,6.43
2022-10-29T08:38:28.985Z,7.27
2022-10-29T08:41:19.376Z,6.78
2022-10-29T08:44:05.153Z,6.60
2022-10-29T08:46:43.460Z,6.00
2022-10-29T08:49:18.046Z,5.82
2022-10-29T08:51:54.316Z,6.35
2022-10-29T08:54:31.150Z,7.53
2022-10-29T08:57:07.183Z,7.65
2022-10-29T08:59:41.502Z,6.90
2022-10-29T09:02:17.153Z,6.00
2022-10-29T09:04:45.572Z,7.22
2022-10-29T09:07:30.087Z,7.78
2022-10-29T09:10:04.751Z,6.85
2022-10-29T09:12:56.470Z,6.50
2022-10-29T09:15:54.773Z,5.80
2022-10-29T09:18:37.414Z,6.28
2022-10-29T09:21:14.021Z,6.45
2022-10-29T09:24:01.826Z,6.70
2022-10-29T09:26:33.063Z,5.82
2022-10-29T09:29:39.691Z,5.03
2022-10-29T09:32:14.422Z,5.13
2022-10-29T09:34:47.998Z,5.15
2022-10-29T09:37:18.633Z,5.35
2022-10-29T09:39:49.014Z,5.97
2022-10-29T09:42:21.070Z,4.88
2022-10-29T09:44:56.191Z,5.43
2022-10-29T09:47:37.031Z,4.82
2022-10-29T09:50:16.845Z,5.88
2022-10-29T09:52:46.271Z,5.97
2022-10-29T09:58:19.430Z,5.88
2022-10-29T10:00:49.697Z,5.82
2022-10-29T10:03:24.266Z,5.35
2022-10-29T10:06:02.296Z,6.03
2022-10-29T10:08:32.204Z,5.72
2022-10-29T10:11:03.241Z,5.65
2022-10-29T10:13:33.547Z,6.20
2022-10-29T10:16:09.943Z,5.82
2022-10-29T10:21:27.478Z,5.85
2022-10-29T10:23:57.591Z,5.35
2022-10-29T10:29:13.809Z,5.00
2022-10-29T10:36:50.049Z,4.90
2022-10-29T10:39:37.233Z,5.35
2022-10-29T10:42:08.057Z,4.28
2022-10-29T10:44:36.516Z,5.15
2022-10-29T10:47:08.937Z,4.05
2022-10-29T10:49:38.986Z,4.47
2022-10-29T10:52:16.351Z,4.65
2022-10-29T10:54:48.292Z,4.40
2022-10-29T10:57:22.847Z,4.25
2022-10-29T10:59:58.609Z,4.90
2022-10-29T11:02:36.520Z,4.53
2022-10-29T11:05:15.729Z,4.50
2022-10-29T11:07:49.871Z,4.15
2022-10-29T11:10:20.547Z,4.30
2022-10-29T11:12:54.903Z,3.90
2022-10-29T11:15:38.880Z,4.40
2022-10-29T11:21:15.941Z,4.35
2022-10-29T11:23:53.692Z,4.75
2022-10-29T11:26:30.685Z,4.43
2022-10-29T11:29:06.520Z,4.18
2022-10-29T11:31:41.697Z,4.30
2022-10-29T11:34:17.294Z,4.63
2022-10-29T11:36:53.092Z,4.38
2022-10-29T11:39:27.538Z,4.22
2022-10-29T11:41:59.534Z,4.43
2022-10-29T11:44:29.374Z,4.28
2022-10-29T11:47:16.996Z,3.75
2022-10-29T11:50:05.626Z,4.07
2022-10-29T11:52:41.340Z,3.88
2022-10-29T11:55:22.890Z,4.40
2022-10-29T11:57:56.644Z,3.83
2022-10-29T12:00:26.277Z,4.35
2022-10-29T12:03:28.221Z,3.90
2022-10-29T12:06:09.495Z,3.85
2022-10-29T12:08:54.610Z,4.47
2022-10-29T12:11:30.027Z,4.30
2022-10-29T12:14:08.688Z,4.38
2022-10-29T12:16:47.065Z,4.20
2022-10-29T12:19:27.268Z,4.50
2022-10-29T12:22:06.197Z,4.32
2022-10-29T12:24:50.743Z,4.85
2022-10-29T12:27:26.522Z,4.40
2022-10-29T12:30:00.981Z,4.10
2022-10-29T12:32:35.896Z,4.30
2022-10-29T12:35:13.647Z,4.38
2022-10-29T12:37:51.063Z,4.18
2022-10-29T12:40:23.522Z,4.65
2022-10-29T12:42:52.946Z,4.65
2022-10-29T12:45:36.953Z,4.38
2022-10-29T12:48:16.287Z,4.15
2022-10-29T12:50:54.628Z,4.10
2022-10-29T12:53:31.776Z,4.00
2022-10-29T12:56:00.108Z,3.90
2022-10-29T12:58:50.064Z,4.07
2022-10-29T13:02:10.572Z,4.47
2022-10-29T13:04:39.194Z,4.20
2022-10-29T13:07:24.343Z,4.50
2022-10-29T13:10:29.710Z,4.55
2022-10-29T13:13:05.407Z,6.30
2022-10-29T13:15:38.124Z,4.15
2022-10-29T13:18:20.264Z,4.25
2022-10-29T13:20:51.527Z,4.32
2022-10-29T13:23:36.065Z,3.95
2022-10-29T13:26:05.694Z,3.80
2022-10-29T13:32:00.774Z,4.45
2022-10-29T13:34:50.822Z,4.53
2022-10-29T13:37:52.542Z,4.97
2022-10-29T13:41:03.846Z,4.55
2022-10-29T13:43:33.848Z,4.82
2022-10-29T13:46:26.618Z,4.78
2022-10-29T13:48:56.374Z,4.93
2022-10-29T13:51:32.036Z,5.32
2022-10-29T13:54:04.517Z,4.45
2022-10-29T13:56:39.473Z,5.00
2022-10-29T13:59:13.607Z,4.82
2022-10-29T14:01:55.486Z,4.70
2022-10-29T14:04:28.073Z,4.80
2022-10-29T14:06:58.568Z,4.70
2022-10-29T14:09:35.146Z,4.97
2022-10-29T14:12:06.638Z,4.88
2022-10-29T14:14:38.287Z,4.60
2022-10-29T14:17:16.325Z,4.75
2022-10-29T14:19:46.535Z,4.60
2022-10-29T14:22:35.494Z,5.13
2022-10-29T14:25:20.131Z,4.70
2022-10-29T14:28:07.210Z,4.60
2022-10-29T14:30:35.617Z,5.28
2022-10-29T14:33:19.216Z,5.60
2022-10-29T14:35:48.238Z,5.70
2022-10-29T14:38:18.788Z,6.17
2022-10-29T14:40:47.949Z,5.40
2022-10-29T14:43:25.261Z,5.20
2022-10-29T14:45:54.389Z,5.50
2022-10-29T14:48:25.074Z,5.63
2022-10-29T14:50:56.565Z,6.20
2022-10-29T14:53:37.496Z,5.75
2022-10-29T14:56:11.315Z,5.43
2022-10-29T14:58:41.861Z,5.57
2022-10-29T15:01:18.857Z,5.15
2022-10-29T15:03:49.558Z,8.25
2022-10-29T15:06:22.474Z,6.57
2022-10-29T15:08:58.518Z,5.38
2022-10-29T15:11:37.603Z,5.20
2022-10-29T15:14:25.255Z,5.40
2022-10-29T15:17:09.899Z,5.10
2022-10-29T15:19:44.725Z,5.20
2022-10-29T15:22:19.960Z,5.22
2022-10-29T15:24:51.421Z,5.28
2022-10-29T15:27:20.017Z,5.40
2022-10-29T15:29:50.667Z,4.93
2022-10-29T15:32:19.753Z,5.32
2022-10-29T15:34:52.499Z,5.30
2022-10-29T15:37:42.008Z,4.70
2022-10-29T15:40:15.539Z,5.03
2022-10-29T15:42:47.583Z,10.02
2022-10-29T15:45:27.741Z,7.97
2022-10-29T15:48:20.241Z,6.35
2022-10-29T15:50:51.830Z,6.20
2022-10-29T15:53:20.225Z,6.70
2022-10-29T15:55:52.799Z,6.35
2022-10-29T15:58:23.250Z,5.60
2022-10-29T16:00:51.912Z,5.45
2022-10-29T16:03:22.028Z,6.13
2022-10-29T16:08:26.746Z,5.00
2022-10-29T16:10:56.216Z,5.20
2022-10-29T16:13:27.890Z,5.60
2022-10-29T16:15:57.597Z,5.22
2022-10-29T16:18:25.913Z,4.80
2022-10-29T16:20:59.657Z,6.13
2022-10-29T16:23:28.187Z,8.55
2022-10-29T16:25:56.676Z,5.43
2022-10-29T16:28:25.291Z,4.90
2022-10-29T16:30:56.314Z,5.47
2022-10-29T16:33:24.666Z,13.43
2022-10-29T16:35:52.937Z,6.47
2022-10-29T16:38:23.054Z,7.80
2022-10-29T16:40:52.391Z,7.00
2022-10-29T16:43:21.332Z,5.57
2022-10-29T16:45:49.689Z,8.25
2022-10-29T16:48:18.310Z,7.93
2022-10-29T16:50:46.516Z,6.78
2022-10-29T16:53:14.743Z,6.15
2022-10-29T16:55:44.830Z,6.32
2022-10-29T16:58:15.007Z,7.15
2022-10-29T17:00:44.687Z,6.32
2022-10-29T17:03:15.210Z,6.53
2022-10-29T17:05:46.388Z,6.90
2022-10-29T17:08:15.336Z,7.07
2022-10-29T17:10:45.106Z,6.75
2022-10-29T17:13:13.514Z,6.60
2022-10-29T17:15:42.379Z,7.32
2022-10-29T17:18:10.930Z,7.03
2022-10-29T17:20:39.314Z,7.00
2022-10-29T17:23:07.934Z,6.28
2022-10-29T17:25:36.205Z,6.35
2022-10-29T17:28:06.298Z,6.63
2022-10-29T17:30:34.588Z,6.53
2022-10-29T17:33:03.243Z,6.32
2022-10-29T17:35:32.038Z,6.38
2022-10-29T17:38:00.289Z,5.97
2022-10-29T17:40:28.899Z,6.13
2022-10-29T17:43:03.180Z,6.07
2022-10-29T17:45:33.498Z,6.05
2022-10-29T17:48:01.975Z,6.60
2022-10-29T17:50:30.550Z,6.00
2022-10-29T17:52:58.847Z,6.25
2022-10-29T17:55:27.420Z,6.30
2022-10-29T17:57:56.241Z,6.63
2022-10-29T18:00:24.715Z,6.82
2022-10-29T18:02:54.799Z,7.03
2022-10-29T18:05:23.301Z,6.63
2022-10-29T18:07:51.690Z,6.55
2022-10-29T18:10:19.885Z,7.13
2022-10-29T18:12:48.545Z,7.07
2022-10-29T18:15:16.838Z,6.85
2022-10-29T18:17:45.524Z,6.30
2022-10-29T18:20:15.178Z,6.40
2022-10-29T18:22:44.087Z,6.60
2022-10-29T18:25:12.962Z,6.78
2022-10-29T18:27:42.627Z,5.70
2022-10-29T18:30:11.528Z,5.85
2022-10-29T18:32:40.360Z,6.45
2022-10-29T18:35:10.189Z,7.15
2022-10-29T18:37:40.366Z,6.00
2022-10-29T18:40:09.615Z,6.72
2022-10-29T18:42:38.155Z,6.13
2022-10-29T18:45:08.314Z,7.32
2022-10-29T18:47:36.649Z,7.45
2022-10-29T18:50:06.248Z,8.25
2022-10-29T18:52:34.799Z,8.00
2022-10-29T18:55:05.322Z,7.60
2022-10-29T18:57:33.624Z,11.95
2022-10-29T19:00:02.499Z,12.75
2022-10-29T19:02:32.453Z,8.52
2022-10-29T19:05:01.215Z,7.57
2022-10-29T19:07:31.215Z,7.40
2022-10-29T19:09:59.810Z,7.60
2022-10-29T19:12:29.674Z,8.93
2022-10-29T19:14:57.885Z,9.10
2022-10-29T19:17:26.152Z,9.20
2022-10-29T19:19:54.356Z,10.05
2022-10-29T19:22:23.155Z,9.88
2022-10-29T19:24:51.402Z,13.57
2022-10-29T19:27:19.872Z,16.63
2022-10-29T19:29:49.533Z,12.52
2022-10-29T19:32:18.366Z,21.23
2022-10-29T19:34:46.797Z,47.05
2022-10-29T19:37:15.927Z,14.27
2022-10-29T19:39:44.267Z,14.93
2022-10-29T19:42:12.742Z,8.55
2022-10-29T19:44:41.046Z,9.00
2022-10-29T19:47:11.215Z,9.13
2022-10-29T19:49:39.691Z,8.57
2022-10-29T19:52:08.195Z,10.70
2022-10-29T19:54:36.641Z,8.23
2022-10-29T19:57:05.189Z,8.27
2022-10-29T19:59:33.775Z,8.43
2022-10-29T20:02:02.352Z,8.73
2022-10-29T20:04:32.255Z,8.52
2022-10-29T20:07:00.528Z,8.43
2022-10-29T20:09:28.941Z,9.10
2022-10-29T20:11:57.305Z,10.02
2022-10-29T20:14:29.070Z,10.07
2022-10-29T20:16:57.777Z,10.75
2022-10-29T20:19:26.035Z,10.10
2022-10-29T20:21:55.767Z,9.38
2022-10-29T20:24:24.599Z,11.18
2022-10-29T20:26:53.329Z,10.32
2022-10-29T20:29:22.521Z,11.55
2022-10-29T20:31:51.003Z,16.85
2022-10-29T20:34:19.370Z,13.90
2022-10-29T20:36:47.750Z,17.92
2022-10-29T20:39:18.258Z,24.25
2022-10-29T20:41:47.903Z,27.13
2022-10-29T20:44:16.596Z,15.13
2022-10-29T20:46:44.845Z,10.10
2022-10-29T20:49:13.249Z,8.88
2022-10-29T20:51:41.893Z,11.32
2022-10-29T20:54:10.130Z,13.40
2022-10-29T20:56:46.178Z,15.82
2022-10-29T20:59:18.063Z,13.63
2022-10-29T21:01:46.565Z,11.85
2022-10-29T21:04:15.179Z,10.93
2022-10-29T21:06:43.668Z,10.40
2022-10-29T21:09:11.837Z,10.00
2022-10-29T21:11:41.981Z,10.30
2022-10-29T21:14:10.291Z,10.18
2022-10-29T21:16:38.671Z,19.88
2022-10-29T21:19:07.325Z,19.25
2022-10-29T21:21:35.971Z,18.17
2022-10-29T21:24:04.371Z,12.20
2022-10-29T21:26:33.140Z,9.98
2022-10-29T21:29:03.008Z,10.10
2022-10-29T21:31:31.454Z,12.23
2022-10-29T21:33:59.986Z,14.18
2022-10-29T21:36:28.543Z,13.50
2022-10-29T21:38:57.212Z,22.08
2022-10-29T21:41:25.505Z,13.93
2022-10-29T21:43:54.996Z,11.60
2022-10-29T21:46:24.595Z,11.18
2022-10-29T21:48:53.300Z,14.60
2022-10-29T21:51:21.683Z,13.38
2022-10-29T21:53:49.997Z,12.18
2022-10-29T21:56:18.406Z,10.77
2022-10-29T21:58:46.691Z,11.27
2022-10-29T22:01:16.888Z,9.80
2022-10-29T22:03:47.873Z,10.52
2022-10-29T22:06:18.172Z,9.80
2022-10-29T22:08:46.858Z,9.80
2022-10-29T22:11:16.588Z,9.75
2022-10-29T22:13:45.100Z,9.38
2022-10-29T22:16:13.776Z,9.93
2022-10-29T22:18:42.107Z,9.98
2022-10-29T22:21:13.869Z,9.95
2022-10-29T22:23:46.959Z,10.35
2022-10-29T22:26:17.271Z,10.00
2022-10-29T22:28:47.112Z,10.45
2022-10-29T22:31:16.965Z,18.55
2022-10-29T22:33:46.001Z,17.92
2022-10-29T22:36:17.289Z,16.27
2022-10-29T22:38:45.669Z,10.60
2022-10-29T22:41:16.318Z,9.52
2022-10-29T22:46:14.726Z,8.68
2022-10-29T22:48:44.262Z,9.68
2022-10-29T22:51:15.894Z,12.30
2022-10-29T22:53:44.612Z,14.90
2022-10-29T22:56:14.803Z,13.52
2022-10-29T22:58:43.671Z,12.13
2022-10-29T23:01:13.659Z,10.75
2022-10-29T23:03:42.832Z,10.07
2022-10-29T23:06:12.704Z,8.07
2022-10-29T23:08:44.498Z,8.95
2022-10-29T23:11:16.608Z,8.40
2022-10-29T23:13:45.317Z,7.93
2022-10-29T23:16:14.089Z,8.30
2022-10-29T23:18:42.840Z,8.70
2022-10-29T23:21:11.063Z,8.00
2022-10-29T23:23:39.583Z,8.52
2022-10-29T23:26:11.411Z,8.48
2022-10-29T23:28:40.728Z,7.70
2022-10-29T23:31:16.338Z,8.32
2022-10-29T23:33:45.780Z,9.07
2022-10-29T23:36:15.515Z,9.05
2022-10-29T23:38:44.302Z,8.13
2022-10-29T23:41:14.883Z,8.43
2022-10-29T23:43:43.164Z,8.52
2022-10-29T23:46:12.008Z,8.10
2022-10-29T23:48:40.223Z,9.02
2022-10-29T23:51:08.574Z,8.30
2022-10-29T23:53:37.176Z,9.55
2022-10-29T23:56:06.296Z,16.65
2022-10-29T23:58:38.123Z,11.93
